createdAt,value
2023-02-17T00:00:40.601Z,10.04
2023-02-17T00:01:55.139Z,10.02
2023-02-17T00:02:58.892Z,10.00
2023-02-17T00:04:02.202Z,9.98
2023-02-17T00:05:06.819Z,9.98
2023-02-17T00:06:11.456Z,9.96
2023-02-17T00:07:14.381Z,9.96
2023-02-17T00:08:17.312Z,9.96
2023-02-17T00:09:20.428Z,9.95
2023-02-17T00:10:23.209Z,9.95
2023-02-17T00:11:28.398Z,9.95
2023-02-17T00:12:31.450Z,9.93
2023-02-17T00:13:34.608Z,9.90
2023-02-17T00:14:40.138Z,9.89
2023-02-17T00:15:43.067Z,9.87
2023-02-17T00:16:46.176Z,9.87
2023-02-17T00:17:49.068Z,9.86
2023-02-17T00:18:58.350Z,9.86
2023-02-17T00:20:01.442Z,9.86
2023-02-17T00:21:15.663Z,9.85
2023-02-17T00:22:18.707Z,9.84
2023-02-17T00:23:21.615Z,9.83
2023-02-17T00:24:26.150Z,9.82
2023-02-17T00:25:29.282Z,9.80
2023-02-17T00:26:32.232Z,9.79
2023-02-17T00:27:35.366Z,9.78
2023-02-17T00:28:38.425Z,9.79
2023-02-17T00:29:41.393Z,9.79
2023-02-17T00:30:44.509Z,9.79
2023-02-17T00:31:48.134Z,9.80
2023-02-17T00:32:52.409Z,9.80
2023-02-17T00:33:56.666Z,9.81
2023-02-17T00:34:59.653Z,9.81
2023-02-17T00:36:07.928Z,9.82
2023-02-17T00:37:11.274Z,9.82
2023-02-17T00:38:14.389Z,9.82
2023-02-17T00:39:17.934Z,9.82
2023-02-17T00:40:21.500Z,9.82
2023-02-17T00:41:28.894Z,9.82
2023-02-17T00:42:33.810Z,9.83
2023-02-17T00:43:36.794Z,9.83
2023-02-17T00:44:39.842Z,9.82
2023-02-17T00:45:42.794Z,9.82
2023-02-17T00:46:47.034Z,9.83
2023-02-17T00:47:50.031Z,9.83
2023-02-17T00:48:53.622Z,9.84
2023-02-17T00:49:57.072Z,9.84
2023-02-17T00:51:02.625Z,9.85
2023-02-17T00:52:05.612Z,9.85
2023-02-17T00:53:09.931Z,9.82
2023-02-17T00:54:14.758Z,9.82
2023-02-17T00:55:18.214Z,9.81
2023-02-17T00:56:21.083Z,9.81
2023-02-17T00:57:24.851Z,9.80
2023-02-17T00:58:27.953Z,9.80
2023-02-17T00:59:31.110Z,9.80
2023-02-17T01:00:34.100Z,9.78
2023-02-17T01:01:38.400Z,9.77
2023-02-17T01:02:41.505Z,9.77
2023-02-17T01:03:44.519Z,9.77
2023-02-17T01:04:47.853Z,9.77
2023-02-17T01:05:51.970Z,9.77
2023-02-17T01:06:55.027Z,9.78
2023-02-17T01:07:59.880Z,9.79
2023-02-17T01:09:06.725Z,9.79
2023-02-17T01:10:10.383Z,9.77
2023-02-17T01:11:18.811Z,9.77
2023-02-17T01:12:22.333Z,9.77
2023-02-17T01:13:25.735Z,9.76
2023-02-17T01:14:28.665Z,9.77
2023-02-17T01:15:33.176Z,9.76
2023-02-17T01:16:39.355Z,9.77
2023-02-17T01:17:42.478Z,9.78
2023-02-17T01:18:45.753Z,9.78
2023-02-17T01:19:48.735Z,9.78
2023-02-17T01:20:52.734Z,9.77
2023-02-17T01:21:55.677Z,9.77
2023-02-17T01:22:58.531Z,9.78
2023-02-17T01:24:04.685Z,9.79
2023-02-17T01:25:08.288Z,9.79
2023-02-17T01:26:18.889Z,9.80
2023-02-17T01:27:21.845Z,9.80
2023-02-17T01:28:24.822Z,9.81
2023-02-17T01:29:28.736Z,9.83
2023-02-17T01:30:32.162Z,9.84
2023-02-17T01:31:36.081Z,9.84
2023-02-17T01:32:39.062Z,9.85
2023-02-17T01:33:41.989Z,9.84
2023-02-17T01:34:45.259Z,9.84
2023-02-17T01:35:48.319Z,9.84
2023-02-17T01:36:51.516Z,9.83
2023-02-17T01:37:54.437Z,9.83
2023-02-17T01:39:00.128Z,9.83
2023-02-17T01:40:04.282Z,9.83
2023-02-17T01:41:09.613Z,9.85
2023-02-17T01:42:20.120Z,9.85
2023-02-17T01:43:25.085Z,9.85
2023-02-17T01:44:32.187Z,9.85
2023-02-17T01:45:41.614Z,9.84
2023-02-17T01:46:52.767Z,9.85
2023-02-17T01:48:02.093Z,9.84
2023-02-17T01:49:15.590Z,9.83
2023-02-17T01:50:22.599Z,9.83
2023-02-17T01:51:30.562Z,9.84
2023-02-17T01:52:33.540Z,9.84
2023-02-17T01:53:48.692Z,9.85
2023-02-17T01:55:07.001Z,9.86
2023-02-17T01:56:11.925Z,9.87
2023-02-17T01:57:18.219Z,9.87
2023-02-17T01:58:24.883Z,9.86
2023-02-17T01:59:29.931Z,9.84
2023-02-17T02:00:34.941Z,9.84
2023-02-17T02:01:39.233Z,9.84
2023-02-17T02:02:46.144Z,9.85
2023-02-17T02:03:52.251Z,9.86
2023-02-17T02:04:55.671Z,9.85
2023-02-17T02:06:00.932Z,9.86
2023-02-17T02:07:10.688Z,9.87
2023-02-17T02:08:15.039Z,9.87
2023-02-17T02:09:22.355Z,9.87
2023-02-17T02:10:25.604Z,9.88
2023-02-17T02:11:28.986Z,9.88
2023-02-17T02:12:35.484Z,9.89
2023-02-17T02:13:38.412Z,9.89
2023-02-17T02:14:41.313Z,9.87
2023-02-17T02:15:54.175Z,9.86
2023-02-17T02:17:29.018Z,9.85
2023-02-17T02:19:02.141Z,9.84
2023-02-17T02:20:10.919Z,9.83
2023-02-17T02:21:45.658Z,9.82
2023-02-17T02:22:52.708Z,9.82
2023-02-17T02:24:19.232Z,9.83
2023-02-17T02:25:50.517Z,9.85
2023-02-17T02:27:09.931Z,9.85
2023-02-17T02:28:40.153Z,9.87
2023-02-17T02:29:55.229Z,9.88
2023-02-17T02:31:50.274Z,9.89
2023-02-17T02:33:18.688Z,9.87
2023-02-17T02:34:37.136Z,9.88
2023-02-17T02:35:59.962Z,9.89
2023-02-17T02:37:13.080Z,9.89
2023-02-17T02:38:45.858Z,9.89
2023-02-17T02:39:52.680Z,9.89
2023-02-17T02:41:17.925Z,9.89
2023-02-17T02:42:25.044Z,9.90
2023-02-17T02:43:30.114Z,9.91
2023-02-17T02:44:33.098Z,9.91
2023-02-17T02:45:36.153Z,9.92
2023-02-17T02:46:39.235Z,9.94
2023-02-17T02:47:53.510Z,9.95
2023-02-17T02:49:00.688Z,9.95
2023-02-17T02:50:03.825Z,9.96
2023-02-17T02:51:19.048Z,9.97
2023-02-17T02:52:51.418Z,9.97
2023-02-17T02:54:08.691Z,9.98
2023-02-17T02:55:18.078Z,9.98
2023-02-17T02:56:52.576Z,10.00
2023-02-17T02:58:43.225Z,10.00
2023-02-17T02:59:57.060Z,10.00
2023-02-17T03:01:29.625Z,10.01
2023-02-17T03:02:48.274Z,10.00
2023-02-17T03:04:26.670Z,10.02
2023-02-17T03:05:53.444Z,10.03
2023-02-17T03:07:05.931Z,10.03
2023-02-17T03:08:14.331Z,10.05
2023-02-17T03:09:21.503Z,10.06
2023-02-17T03:10:24.643Z,10.08
2023-02-17T03:11:33.903Z,10.10
2023-02-17T03:12:39.099Z,10.11
2023-02-17T03:13:42.603Z,10.13
2023-02-17T03:14:50.164Z,10.14
2023-02-17T03:15:53.431Z,10.15
2023-02-17T03:16:56.525Z,10.15
2023-02-17T03:18:02.869Z,10.16
2023-02-17T03:19:06.914Z,10.18
2023-02-17T03:20:11.005Z,10.19
2023-02-17T03:21:17.506Z,10.19
2023-02-17T03:22:31.753Z,10.20
2023-02-17T03:23:34.901Z,10.19
2023-02-17T03:24:37.882Z,10.19
2023-02-17T03:25:45.028Z,10.19
2023-02-17T03:26:48.991Z,10.20
2023-02-17T03:27:53.277Z,10.22
2023-02-17T03:28:56.559Z,10.23
2023-02-17T03:29:59.557Z,10.24
2023-02-17T03:31:02.710Z,10.25
2023-02-17T03:32:06.741Z,10.24
2023-02-17T03:33:09.792Z,10.24
2023-02-17T03:34:12.948Z,10.23
2023-02-17T03:35:15.921Z,10.23
2023-02-17T03:36:18.914Z,10.24
2023-02-17T03:37:22.627Z,10.23
2023-02-17T03:38:25.607Z,10.22
2023-02-17T03:39:28.771Z,10.22
2023-02-17T03:40:31.670Z,10.22
2023-02-17T03:41:34.728Z,10.22
2023-02-17T03:42:37.652Z,10.21
2023-02-17T03:43:40.638Z,10.22
2023-02-17T03:44:43.740Z,10.21
2023-02-17T03:45:46.771Z,10.22
2023-02-17T03:46:49.830Z,10.21
2023-02-17T03:47:52.746Z,10.21
2023-02-17T03:48:55.718Z,10.20
2023-02-17T03:49:58.735Z,10.20
2023-02-17T03:51:14.436Z,10.20
2023-02-17T03:52:18.017Z,10.18
2023-02-17T03:53:21.056Z,10.18
2023-02-17T03:54:23.954Z,10.19
2023-02-17T03:55:27.244Z,10.19
2023-02-17T03:56:30.238Z,10.20
2023-02-17T03:57:34.784Z,10.19
2023-02-17T03:58:38.960Z,10.19
2023-02-17T03:59:42.049Z,10.20
2023-02-17T04:00:45.212Z,10.21
2023-02-17T04:01:48.244Z,10.21
2023-02-17T04:02:51.262Z,10.22
2023-02-17T04:03:54.339Z,10.23
2023-02-17T04:04:57.314Z,10.23
2023-02-17T04:06:00.517Z,10.23
2023-02-17T04:07:03.596Z,10.24
2023-02-17T04:08:06.492Z,10.25
2023-02-17T04:09:09.476Z,10.26
2023-02-17T04:10:12.380Z,10.27
2023-02-17T04:11:15.657Z,10.28
2023-02-17T04:12:18.565Z,10.28
2023-02-17T04:13:22.308Z,10.29
2023-02-17T04:14:25.246Z,10.29
2023-02-17T04:15:30.008Z,10.30
2023-02-17T04:16:33.279Z,10.30
2023-02-17T04:17:37.654Z,10.30
2023-02-17T04:18:40.704Z,10.30
2023-02-17T04:19:43.590Z,10.30
2023-02-17T04:20:49.571Z,10.31
2023-02-17T04:21:52.881Z,10.30
2023-02-17T04:22:55.797Z,10.28
2023-02-17T04:24:01.974Z,10.26
2023-02-17T04:25:05.140Z,10.24
2023-02-17T04:26:09.136Z,10.23
2023-02-17T04:27:12.338Z,10.23
2023-02-17T04:28:16.406Z,10.23
2023-02-17T04:29:19.365Z,10.22
2023-02-17T04:30:22.269Z,10.22
2023-02-17T04:31:26.129Z,10.22
2023-02-17T04:32:29.345Z,10.22
2023-02-17T04:33:32.553Z,10.22
2023-02-17T04:34:35.493Z,10.21
2023-02-17T04:35:38.875Z,10.21
2023-02-17T04:36:44.194Z,10.20
2023-02-17T04:37:47.440Z,10.19
2023-02-17T04:38:50.333Z,10.18
2023-02-17T04:39:53.192Z,10.18
2023-02-17T04:40:57.335Z,10.18
2023-02-17T04:42:00.266Z,10.18
2023-02-17T04:43:04.327Z,10.18
2023-02-17T04:44:07.365Z,10.18
2023-02-17T04:45:11.225Z,10.17
2023-02-17T04:46:14.320Z,10.16
2023-02-17T04:47:17.442Z,10.16
2023-02-17T04:48:20.549Z,10.15
2023-02-17T04:49:23.515Z,10.15
2023-02-17T04:50:26.838Z,10.16
2023-02-17T04:51:29.766Z,10.15
2023-02-17T04:52:32.823Z,10.14
2023-02-17T04:53:36.262Z,10.12
2023-02-17T04:54:39.154Z,10.11
2023-02-17T04:55:42.331Z,10.11
2023-02-17T04:56:45.322Z,10.10
2023-02-17T04:57:48.176Z,10.10
2023-02-17T04:58:51.452Z,10.09
2023-02-17T04:59:54.344Z,10.08
2023-02-17T05:00:59.228Z,10.09
2023-02-17T05:02:02.322Z,10.08
2023-02-17T05:03:05.328Z,10.07
2023-02-17T05:04:08.751Z,10.07
2023-02-17T05:05:15.297Z,10.07
2023-02-17T05:06:18.316Z,10.08
2023-02-17T05:07:21.328Z,10.10
2023-02-17T05:08:24.715Z,10.10
2023-02-17T05:09:28.168Z,10.10
2023-02-17T05:10:31.361Z,10.11
2023-02-17T05:11:34.383Z,10.11
2023-02-17T05:12:37.350Z,10.11
2023-02-17T05:13:40.240Z,10.11
2023-02-17T05:14:43.485Z,10.11
2023-02-17T05:15:47.142Z,10.12
2023-02-17T05:16:50.130Z,10.11
2023-02-17T05:17:53.047Z,10.12
2023-02-17T05:18:57.118Z,10.11
2023-02-17T05:20:01.278Z,10.12
2023-02-17T05:21:04.435Z,10.13
2023-02-17T05:22:07.406Z,10.14
2023-02-17T05:23:10.436Z,10.14
2023-02-17T05:24:13.348Z,10.14
2023-02-17T05:25:16.588Z,10.14
2023-02-17T05:26:19.495Z,10.14
2023-02-17T05:27:22.671Z,10.14
2023-02-17T05:28:25.921Z,10.14
2023-02-17T05:29:28.871Z,10.14
2023-02-17T05:30:32.034Z,10.14
2023-02-17T05:31:35.079Z,10.15
2023-02-17T05:32:38.057Z,10.15
2023-02-17T05:33:41.019Z,10.15
2023-02-17T05:34:44.388Z,10.16
2023-02-17T05:35:47.696Z,10.16
2023-02-17T05:36:50.675Z,10.17
2023-02-17T05:37:53.799Z,10.17
2023-02-17T05:38:56.816Z,10.17
2023-02-17T05:39:59.700Z,10.17
2023-02-17T05:41:03.326Z,10.17
2023-02-17T05:42:06.236Z,10.19
2023-02-17T05:43:09.060Z,10.18
2023-02-17T05:44:11.893Z,10.17
2023-02-17T05:45:14.841Z,10.16
2023-02-17T05:46:18.094Z,10.15
2023-02-17T05:47:22.133Z,10.15
2023-02-17T05:48:25.056Z,10.16
2023-02-17T05:49:28.037Z,10.15
2023-02-17T05:50:31.053Z,10.15
2023-02-17T05:51:39.107Z,10.15
2023-02-17T05:52:42.030Z,10.15
2023-02-17T05:53:45.269Z,10.15
2023-02-17T05:54:48.106Z,10.15
2023-02-17T05:55:50.998Z,10.16
2023-02-17T05:56:54.208Z,10.16
2023-02-17T05:57:57.194Z,10.16
2023-02-17T05:59:00.708Z,10.16
2023-02-17T06:00:04.978Z,10.16
2023-02-17T06:01:15.176Z,10.15
2023-02-17T06:02:18.490Z,10.15
2023-02-17T06:03:21.444Z,10.15
2023-02-17T06:04:24.509Z,10.15
2023-02-17T06:05:27.565Z,10.16
2023-02-17T06:06:30.499Z,10.16
2023-02-17T06:07:34.095Z,10.15
2023-02-17T06:08:37.508Z,10.15
2023-02-17T06:09:40.433Z,10.14
2023-02-17T06:10:43.697Z,10.14
2023-02-17T06:11:46.613Z,10.13
2023-02-17T06:12:50.014Z,10.13
2023-02-17T06:13:52.966Z,10.12
2023-02-17T06:14:55.982Z,10.11
2023-02-17T06:15:59.062Z,10.10
2023-02-17T06:17:04.098Z,10.10
2023-02-17T06:18:07.344Z,10.10
2023-02-17T06:19:10.366Z,10.10
2023-02-17T06:20:13.442Z,10.11
2023-02-17T06:21:16.573Z,10.12
2023-02-17T06:22:19.537Z,10.12
2023-02-17T06:23:24.407Z,10.14
2023-02-17T06:24:27.482Z,10.15
2023-02-17T06:25:31.386Z,10.15
2023-02-17T06:26:34.509Z,10.16
2023-02-17T06:27:37.391Z,10.16
2023-02-17T06:28:40.715Z,10.15
2023-02-17T06:29:44.561Z,10.13
2023-02-17T06:30:47.486Z,10.12
2023-02-17T06:31:50.626Z,10.11
2023-02-17T06:32:53.658Z,10.09
2023-02-17T06:33:56.703Z,10.08
2023-02-17T06:34:59.581Z,10.06
2023-02-17T06:36:02.722Z,10.05
2023-02-17T06:37:05.705Z,10.05
2023-02-17T06:38:08.662Z,10.03
2023-02-17T06:39:11.842Z,10.02
2023-02-17T06:40:15.180Z,10.01
2023-02-17T06:41:18.047Z,10.00
2023-02-17T06:42:20.946Z,10.00
2023-02-17T06:43:23.824Z,9.99
2023-02-17T06:44:27.315Z,9.99
2023-02-17T06:45:30.246Z,9.99
2023-02-17T06:46:33.259Z,9.99
2023-02-17T06:47:36.687Z,9.99
2023-02-17T06:48:39.624Z,9.99
2023-02-17T06:49:42.929Z,9.99
2023-02-17T06:50:45.920Z,9.99
2023-02-17T06:51:49.023Z,9.99
2023-02-17T06:52:51.940Z,9.98
2023-02-17T06:53:55.753Z,9.99
2023-02-17T06:54:59.019Z,10.00
2023-02-17T06:56:01.939Z,10.00
2023-02-17T06:57:04.833Z,10.00
2023-02-17T06:58:08.491Z,10.00
2023-02-17T06:59:11.538Z,10.00
2023-02-17T07:00:15.200Z,10.01
2023-02-17T07:01:21.089Z,10.01
2023-02-17T07:02:24.405Z,10.01
2023-02-17T07:03:27.421Z,10.02
2023-02-17T07:04:30.396Z,10.03
2023-02-17T07:05:37.065Z,10.03
2023-02-17T07:06:40.088Z,10.02
2023-02-17T07:07:43.080Z,10.02
2023-02-17T07:08:46.016Z,10.02
2023-02-17T07:09:48.937Z,10.03
2023-02-17T07:10:52.163Z,10.03
2023-02-17T07:11:54.982Z,10.03
2023-02-17T07:12:57.866Z,10.02
2023-02-17T07:14:00.929Z,10.03
2023-02-17T07:15:04.368Z,10.03
2023-02-17T07:16:09.304Z,10.05
2023-02-17T07:17:12.490Z,10.06
2023-02-17T07:18:15.396Z,10.07
2023-02-17T07:19:18.360Z,10.07
2023-02-17T07:20:21.288Z,10.09
2023-02-17T07:21:25.021Z,10.10
2023-02-17T07:22:27.960Z,10.10
2023-02-17T07:23:31.755Z,10.11
2023-02-17T07:24:34.705Z,10.12
2023-02-17T07:25:37.704Z,10.14
2023-02-17T07:26:41.483Z,10.14
2023-02-17T07:27:44.419Z,10.15
2023-02-17T07:28:47.399Z,10.17
2023-02-17T07:29:50.227Z,10.18
2023-02-17T07:30:53.099Z,10.19
2023-02-17T07:31:56.269Z,10.20
2023-02-17T07:32:59.137Z,10.21
2023-02-17T07:34:03.697Z,10.22
2023-02-17T07:35:06.717Z,10.23
2023-02-17T07:36:12.821Z,10.23
2023-02-17T07:37:16.102Z,10.24
2023-02-17T07:38:18.954Z,10.24
2023-02-17T07:39:21.843Z,10.24
2023-02-17T07:40:25.758Z,10.23
2023-02-17T07:41:28.773Z,10.24
2023-02-17T07:42:32.302Z,10.24
2023-02-17T07:43:35.780Z,10.25
2023-02-17T07:44:39.721Z,10.24
2023-02-17T07:45:42.723Z,10.24
2023-02-17T07:46:45.780Z,10.23
2023-02-17T07:47:48.934Z,10.24
2023-02-17T07:48:52.351Z,10.25
2023-02-17T07:49:56.030Z,10.23
2023-02-17T07:51:07.377Z,10.23
2023-02-17T07:52:10.637Z,10.21
2023-02-17T07:53:13.796Z,10.21
2023-02-17T07:54:17.365Z,10.22
2023-02-17T07:55:20.235Z,10.23
2023-02-17T07:56:24.270Z,10.22
2023-02-17T07:57:27.569Z,10.21
2023-02-17T07:58:35.047Z,10.20
2023-02-17T07:59:37.942Z,10.19
2023-02-17T08:00:40.844Z,10.17
2023-02-17T08:01:43.797Z,10.18
2023-02-17T08:02:47.053Z,10.19
2023-02-17T08:03:51.260Z,10.19
2023-02-17T08:04:54.118Z,10.21
2023-02-17T08:05:57.021Z,10.20
2023-02-17T08:07:00.056Z,10.21
2023-02-17T08:08:22.053Z,10.19
2023-02-17T08:09:43.804Z,10.18
2023-02-17T08:11:05.635Z,10.18
2023-02-17T08:12:35.932Z,10.19
2023-02-17T08:13:38.985Z,10.19
2023-02-17T08:14:41.990Z,10.18
2023-02-17T08:15:45.023Z,10.19
2023-02-17T08:16:47.985Z,10.22
2023-02-17T08:17:51.242Z,10.24
2023-02-17T08:18:55.619Z,10.24
2023-02-17T08:20:01.951Z,10.24
2023-02-17T08:21:07.102Z,10.26
2023-02-17T08:22:10.209Z,10.27
2023-02-17T08:23:13.182Z,10.29
2023-02-17T08:24:22.120Z,10.31
2023-02-17T08:25:25.628Z,10.31
2023-02-17T08:26:28.880Z,10.31
2023-02-17T08:27:32.309Z,10.31
2023-02-17T08:28:35.390Z,10.31
2023-02-17T08:29:38.321Z,10.31
2023-02-17T08:30:41.537Z,10.30
2023-02-17T08:31:44.960Z,10.29
2023-02-17T08:32:47.982Z,10.29
2023-02-17T08:33:52.017Z,10.30
2023-02-17T08:34:58.330Z,10.29
2023-02-17T08:36:07.580Z,10.27
2023-02-17T08:37:11.230Z,10.27
2023-02-17T08:38:15.407Z,10.25
2023-02-17T08:39:19.060Z,10.24
2023-02-17T08:40:22.162Z,10.24
2023-02-17T08:41:32.496Z,10.24
2023-02-17T08:42:35.525Z,10.24
2023-02-17T08:43:38.444Z,10.25
2023-02-17T08:44:41.764Z,10.27
2023-02-17T08:45:44.994Z,10.27
2023-02-17T08:46:49.837Z,10.28
2023-02-17T08:47:52.767Z,10.30
2023-02-17T08:48:56.588Z,10.32
2023-02-17T08:49:59.662Z,10.32
2023-02-17T08:51:03.380Z,10.33
2023-02-17T08:52:06.413Z,10.34
2023-02-17T08:53:09.291Z,10.33
2023-02-17T08:54:13.014Z,10.32
2023-02-17T08:55:19.129Z,10.30
2023-02-17T08:56:23.394Z,10.32
2023-02-17T08:57:27.193Z,10.30
2023-02-17T08:58:30.167Z,10.30
2023-02-17T08:59:33.138Z,10.30
2023-02-17T09:00:36.473Z,10.31
2023-02-17T09:01:40.532Z,10.32
2023-02-17T09:02:45.173Z,10.33
2023-02-17T09:03:49.996Z,10.34
2023-02-17T09:04:53.031Z,10.35
2023-02-17T09:05:57.938Z,10.35
2023-02-17T09:07:01.271Z,10.34
2023-02-17T09:08:04.457Z,10.35
2023-02-17T09:09:10.250Z,10.34
2023-02-17T09:10:13.695Z,10.32
2023-02-17T09:11:19.708Z,10.31
2023-02-17T09:12:22.618Z,10.29
2023-02-17T09:13:27.021Z,10.28
2023-02-17T09:14:30.085Z,10.25
2023-02-17T09:15:33.047Z,10.24
2023-02-17T09:16:37.064Z,10.24
2023-02-17T09:17:41.230Z,10.23
2023-02-17T09:18:44.634Z,10.22
2023-02-17T09:19:48.484Z,10.22
2023-02-17T09:20:51.918Z,10.22
2023-02-17T09:21:55.940Z,10.20
2023-02-17T09:22:59.511Z,10.20
2023-02-17T09:24:02.550Z,10.19
2023-02-17T09:25:06.012Z,10.18
2023-02-17T09:26:12.031Z,10.12
2023-02-17T09:27:15.194Z,10.09
2023-02-17T09:28:18.269Z,10.09
2023-02-17T09:29:21.171Z,10.08
2023-02-17T09:30:24.341Z,10.07
2023-02-17T09:31:29.190Z,10.07
2023-02-17T09:32:32.397Z,10.07
2023-02-17T09:33:35.759Z,10.06
2023-02-17T09:34:40.125Z,10.04
2023-02-17T09:35:44.581Z,10.02
2023-02-17T09:36:47.593Z,10.02
2023-02-17T09:37:50.802Z,9.99
2023-02-17T09:38:54.244Z,9.98
2023-02-17T09:39:57.158Z,9.99
2023-02-17T09:41:17.064Z,9.99
2023-02-17T09:42:24.551Z,10.00
2023-02-17T09:43:31.194Z,10.00
2023-02-17T09:44:51.961Z,10.01
2023-02-17T09:46:19.287Z,10.00
2023-02-17T09:47:29.916Z,9.98
2023-02-17T09:48:35.860Z,9.95
2023-02-17T09:49:44.858Z,9.96
2023-02-17T09:50:52.359Z,9.97
2023-02-17T09:52:19.473Z,9.97
2023-02-17T09:53:45.145Z,9.96
2023-02-17T09:54:57.493Z,9.96
2023-02-17T09:56:05.700Z,9.98
2023-02-17T09:57:19.850Z,9.99
2023-02-17T09:59:00.952Z,9.98
2023-02-17T10:00:10.794Z,9.97
2023-02-17T10:01:20.798Z,10.00
2023-02-17T10:02:41.626Z,10.01
2023-02-17T10:03:50.531Z,10.02
2023-02-17T10:04:56.453Z,10.02
2023-02-17T10:06:14.322Z,10.03
2023-02-17T10:07:33.123Z,10.05
2023-02-17T10:08:45.560Z,10.06
2023-02-17T10:09:59.061Z,10.07
2023-02-17T10:11:17.091Z,10.10
2023-02-17T10:12:30.367Z,10.13
2023-02-17T10:13:36.446Z,10.15
2023-02-17T10:14:55.367Z,10.15
2023-02-17T10:16:03.302Z,10.13
2023-02-17T10:17:13.546Z,10.13
2023-02-17T10:18:25.404Z,10.17
2023-02-17T10:19:33.788Z,10.17
2023-02-17T10:20:55.729Z,10.19
2023-02-17T10:22:19.829Z,10.20
2023-02-17T10:23:26.245Z,10.20
2023-02-17T10:24:29.369Z,10.19
2023-02-17T10:26:10.172Z,10.20
2023-02-17T10:27:19.599Z,10.19
2023-02-17T10:28:45.671Z,10.19
2023-02-17T10:30:13.350Z,10.20
2023-02-17T10:31:45.621Z,10.23
2023-02-17T10:33:13.243Z,10.25
2023-02-17T10:34:37.519Z,10.25
2023-02-17T10:35:57.874Z,10.29
2023-02-17T10:37:05.428Z,10.29
2023-02-17T10:38:17.790Z,10.32
2023-02-17T10:39:50.884Z,10.35
2023-02-17T10:40:56.318Z,10.33
2023-02-17T10:42:00.423Z,10.32
2023-02-17T10:43:07.759Z,10.34
2023-02-17T10:44:19.164Z,10.36
2023-02-17T10:45:38.368Z,10.38
2023-02-17T10:46:43.439Z,10.39
2023-02-17T10:47:47.082Z,10.38
2023-02-17T10:48:55.800Z,10.39
2023-02-17T10:50:01.395Z,10.41
2023-02-17T10:51:05.397Z,10.39
2023-02-17T10:52:19.146Z,10.39
2023-02-17T10:53:31.770Z,10.37
2023-02-17T10:55:11.330Z,10.37
2023-02-17T10:56:32.790Z,10.36
2023-02-17T10:59:12.425Z,10.36
2023-02-17T11:00:17.840Z,10.37
2023-02-17T11:01:23.340Z,10.37
2023-02-17T11:02:41.292Z,10.36
2023-02-17T11:03:44.438Z,10.38
2023-02-17T11:04:55.192Z,10.38
2023-02-17T11:05:59.447Z,10.37
2023-02-17T11:07:03.404Z,10.37
2023-02-17T11:08:20.940Z,10.40
2023-02-17T11:09:32.811Z,10.42
2023-02-17T11:10:40.269Z,10.43
2023-02-17T11:11:53.361Z,10.46
2023-02-17T11:12:58.740Z,10.47
2023-02-17T11:14:23.993Z,10.47
2023-02-17T11:15:32.225Z,10.45
2023-02-17T11:16:45.843Z,10.46
2023-02-17T11:17:49.461Z,10.46
2023-02-17T11:18:53.816Z,10.43
2023-02-17T11:20:05.076Z,10.42
2023-02-17T11:21:11.616Z,10.41
2023-02-17T11:22:32.047Z,10.39
2023-02-17T11:23:36.274Z,10.35
2023-02-17T11:24:39.207Z,10.34
2023-02-17T11:25:43.826Z,10.35
2023-02-17T11:27:06.000Z,10.34
2023-02-17T11:28:14.898Z,10.36
2023-02-17T11:29:22.435Z,10.38
2023-02-17T11:30:27.757Z,10.38
2023-02-17T11:31:31.853Z,10.38
2023-02-17T11:32:36.205Z,10.38
2023-02-17T11:33:40.553Z,10.37
2023-02-17T11:34:44.441Z,10.37
2023-02-17T11:35:54.498Z,10.38
2023-02-17T11:37:14.218Z,10.36
2023-02-17T11:38:23.599Z,10.37
2023-02-17T11:39:27.091Z,10.35
2023-02-17T11:40:32.558Z,10.34
2023-02-17T11:41:40.087Z,10.35
2023-02-17T11:42:43.309Z,10.36
2023-02-17T11:44:15.196Z,10.37
2023-02-17T11:45:23.178Z,10.35
2023-02-17T11:46:35.501Z,10.33
2023-02-17T11:47:53.495Z,10.32
2023-02-17T11:49:09.498Z,10.31
2023-02-17T11:50:35.303Z,10.27
2023-02-17T11:51:59.999Z,10.25
2023-02-17T11:53:26.870Z,10.23
2023-02-17T11:55:00.838Z,10.20
2023-02-17T11:56:18.047Z,10.18
2023-02-17T11:57:45.356Z,10.14
2023-02-17T11:59:14.486Z,10.13
2023-02-17T12:00:22.595Z,10.12
2023-02-17T12:01:44.604Z,10.13
2023-02-17T12:03:06.160Z,10.12
2023-02-17T12:04:26.760Z,10.11
2023-02-17T12:05:36.021Z,10.10
2023-02-17T12:07:04.580Z,10.11
2023-02-17T12:08:10.435Z,10.09
2023-02-17T12:09:27.359Z,10.07
2023-02-17T12:10:48.569Z,10.07
2023-02-17T12:11:59.428Z,10.06
2023-02-17T12:13:02.376Z,10.05
2023-02-17T12:14:22.321Z,10.02
2023-02-17T12:15:28.504Z,9.99
2023-02-17T12:16:58.470Z,9.99
2023-02-17T12:18:20.856Z,9.99
2023-02-17T12:19:38.845Z,9.97
2023-02-17T12:21:06.135Z,9.98
2023-02-17T12:22:21.961Z,9.97
2023-02-17T12:23:36.348Z,9.94
2023-02-17T12:24:48.077Z,9.93
2023-02-17T12:25:57.326Z,9.91
2023-02-17T12:27:31.395Z,9.87
2023-02-17T12:28:49.884Z,9.84
2023-02-17T12:30:11.806Z,9.85
2023-02-17T12:31:14.802Z,9.86
2023-02-17T12:32:33.426Z,9.87
2023-02-17T12:33:52.192Z,9.86
2023-02-17T12:35:16.373Z,9.85
2023-02-17T12:36:21.035Z,9.87
2023-02-17T12:37:38.865Z,9.87
2023-02-17T12:38:46.867Z,9.85
2023-02-17T12:39:56.351Z,9.84
2023-02-17T12:41:17.523Z,9.83
2023-02-17T12:42:26.289Z,9.84
2023-02-17T12:43:36.546Z,9.81
2023-02-17T12:44:46.172Z,9.80
2023-02-17T12:45:51.346Z,9.79
2023-02-17T12:46:58.618Z,9.79
2023-02-17T12:48:07.420Z,9.78
2023-02-17T12:49:30.376Z,9.79
2023-02-17T12:50:36.687Z,9.79
2023-02-17T12:52:07.416Z,9.80
2023-02-17T12:53:13.337Z,9.80
2023-02-17T12:54:26.621Z,9.77
2023-02-17T12:55:48.935Z,9.75
2023-02-17T12:57:10.350Z,9.76
2023-02-17T12:58:18.349Z,9.81
2023-02-17T12:59:46.211Z,9.81
2023-02-17T13:01:09.568Z,9.80
2023-02-17T13:02:15.449Z,9.78
2023-02-17T13:03:19.124Z,9.79
2023-02-17T13:04:24.985Z,9.81
2023-02-17T13:05:34.806Z,9.83
2023-02-17T13:06:43.237Z,9.81
2023-02-17T13:07:52.530Z,9.80
2023-02-17T13:09:22.766Z,9.79
2023-02-17T13:10:30.826Z,9.81
2023-02-17T13:11:36.169Z,9.80
2023-02-17T13:12:41.271Z,9.80
2023-02-17T13:13:44.465Z,9.81
2023-02-17T13:14:50.722Z,9.81
2023-02-17T13:16:08.042Z,9.81
2023-02-17T13:17:52.163Z,9.80
2023-02-17T13:18:55.466Z,9.78
2023-02-17T13:20:07.548Z,9.78
2023-02-17T13:21:27.476Z,9.75
2023-02-17T13:22:30.718Z,9.78
2023-02-17T13:23:41.135Z,9.79
2023-02-17T13:24:54.342Z,9.81
2023-02-17T13:26:27.339Z,9.80
2023-02-17T13:27:34.950Z,9.78
2023-02-17T13:28:40.545Z,9.77
2023-02-17T13:29:43.771Z,9.77
2023-02-17T13:30:48.795Z,9.77
2023-02-17T13:32:03.615Z,9.76
2023-02-17T13:33:26.584Z,9.73
2023-02-17T13:34:34.824Z,9.73
2023-02-17T13:35:37.818Z,9.74
2023-02-17T13:36:40.958Z,9.74
2023-02-17T13:37:46.057Z,9.75
2023-02-17T13:39:01.339Z,9.75
2023-02-17T13:40:16.614Z,9.75
2023-02-17T13:41:19.637Z,9.74
2023-02-17T13:42:44.303Z,9.73
2023-02-17T13:43:47.490Z,9.73
2023-02-17T13:44:51.433Z,9.73
2023-02-17T13:46:04.085Z,9.71
2023-02-17T13:47:18.350Z,9.70
2023-02-17T13:48:21.641Z,9.69
2023-02-17T13:49:27.811Z,9.68
2023-02-17T13:50:49.033Z,9.67
2023-02-17T13:51:52.066Z,9.66
2023-02-17T13:52:56.448Z,9.63
2023-02-17T13:54:09.526Z,9.63
2023-02-17T13:56:51.350Z,9.61
2023-02-17T13:57:55.295Z,9.61
2023-02-17T13:59:18.517Z,9.58
2023-02-17T14:00:28.809Z,9.59
2023-02-17T14:01:31.856Z,9.59
2023-02-17T14:02:38.754Z,9.60
2023-02-17T14:03:47.051Z,9.59
2023-02-17T14:04:50.139Z,9.60
2023-02-17T14:05:59.127Z,9.61
2023-02-17T14:07:04.952Z,9.61
2023-02-17T14:08:21.287Z,9.62
2023-02-17T14:09:32.542Z,9.58
2023-02-17T14:10:36.551Z,9.58
2023-02-17T14:11:41.420Z,9.58
2023-02-17T14:12:44.892Z,9.60
2023-02-17T14:13:51.157Z,9.61
2023-02-17T14:14:54.485Z,9.61
2023-02-17T14:15:59.580Z,9.61
2023-02-17T14:17:27.041Z,9.61
2023-02-17T14:18:34.131Z,9.61
2023-02-17T14:19:46.773Z,9.62
2023-02-17T14:21:00.858Z,9.61
2023-02-17T14:22:05.563Z,9.62
2023-02-17T14:23:12.946Z,9.61
2023-02-17T14:24:37.201Z,9.60
2023-02-17T14:25:47.080Z,9.59
2023-02-17T14:26:50.358Z,9.58
2023-02-17T14:27:53.430Z,9.57
2023-02-17T14:29:02.796Z,9.58
2023-02-17T14:30:06.750Z,9.60
2023-02-17T14:31:20.402Z,9.63
2023-02-17T14:32:32.737Z,9.62
2023-02-17T14:33:35.968Z,9.58
2023-02-17T14:34:38.859Z,9.59
2023-02-17T14:35:58.431Z,9.62
2023-02-17T14:37:21.117Z,9.64
2023-02-17T14:38:37.502Z,9.64
2023-02-17T14:39:40.865Z,9.64
2023-02-17T14:40:43.705Z,9.64
2023-02-17T14:41:46.663Z,9.63
2023-02-17T14:42:50.354Z,9.64
2023-02-17T14:43:53.429Z,9.65
2023-02-17T14:44:56.526Z,9.66
2023-02-17T14:45:59.732Z,9.67